Time;durP1;ratioP1;P1;durP2;ratioP2;P2;SDS_P1;SDS_P2;PMS_P1;PMS_P2;Temp;Humidity;BMP_temperature;BMP_pressure;BME280_temperature;BME280_humidity;BME280_pressure;Samples;Min_cycle;Max_cycle;Signal;HPM_P1;HPM_P2
2022/05/11 00:01:48;;;;;;;4.43;2.80;;;12.80;48.20;;;;;;5091258;28;20451;-59
2022/05/11 00:04:14;;;;;;;3.28;2.85;;;12.70;48.20;;;;;;5079200;28;20028;-59
2022/05/11 00:06:40;;;;;;;3.95;2.97;;;12.70;48.20;;;;;;5092304;28;20031;-58
2022/05/11 00:09:08;;;;;;;2.70;2.47;;;12.70;48.20;;;;;;5086037;28;20029;-59
2022/05/11 00:11:36;;;;;;;3.88;3.03;;;12.70;48.10;;;;;;5071981;28;20373;-58
2022/05/11 00:14:02;;;;;;;3.30;2.90;;;12.70;48.10;;;;;;5088828;28;20420;-59
2022/05/11 00:16:29;;;;;;;4.47;3.38;;;12.60;48.00;;;;;;5088391;28;20084;-58
2022/05/11 00:18:55;;;;;;;4.22;3.72;;;12.60;48.00;;;;;;5088756;28;20114;-58
2022/05/11 00:21:21;;;;;;;4.63;3.20;;;12.60;48.10;;;;;;5084576;28;20063;-59
2022/05/11 00:23:47;;;;;;;4.05;3.10;;;12.50;48.20;;;;;;5092907;28;20024;-58
2022/05/11 00:26:12;;;;;;;5.07;3.03;;;12.50;48.20;;;;;;5083770;28;20541;-58
2022/05/11 00:28:38;;;;;;;4.10;3.08;;;12.50;48.20;;;;;;5075412;28;20158;-58
2022/05/11 00:31:04;;;;;;;3.72;2.88;;;12.50;48.20;;;;;;5081089;28;20043;-58
2022/05/11 00:33:30;;;;;;;4.53;3.28;;;12.40;48.20;;;;;;5095473;28;20024;-58
2022/05/11 00:35:56;;;;;;;3.60;3.00;;;12.40;48.20;;;;;;5092208;28;20032;-58
2022/05/11 00:38:25;;;;;;;4.15;2.90;;;12.40;48.20;;;;;;5094216;28;20039;-58
2022/05/11 00:40:54;;;;;;;3.88;2.92;;;12.30;48.10;;;;;;5095739;28;20460;-58
2022/05/11 00:43:28;;;;;;;5.25;3.15;;;12.30;48.20;;;;;;5094781;28;20074;-58
2022/05/11 00:46:05;;;;;;;3.65;2.70;;;12.30;48.30;;;;;;5095588;28;20023;-59
2022/05/11 00:51:15;;;;;;;3.40;2.55;;;12.20;48.20;;;;;;5094456;28;20065;-59
2022/05/11 00:53:45;;;;;;;3.85;2.55;;;12.20;48.20;;;;;;5094866;28;20111;-59
2022/05/11 00:56:12;;;;;;;3.17;2.55;;;12.20;48.10;;;;;;5095236;28;20016;-59
2022/05/11 00:58:47;;;;;;;3.13;2.70;;;12.20;48.10;;;;;;5095003;28;20024;-59
2022/05/11 01:01:13;;;;;;;3.03;2.55;;;12.20;48.10;;;;;;5080150;28;20017;-59
2022/05/11 01:04:03;;;;;;;3.10;2.58;;;12.10;48.10;;;;;;5074910;28;20021;-59
2022/05/11 01:06:31;;;;;;;3.55;2.80;;;12.10;48.20;;;;;;5081730;28;20468;-58
2022/05/11 01:09:00;;;;;;;3.45;2.70;;;12.10;48.20;;;;;;5094082;28;20036;-59
2022/05/11 01:11:26;;;;;;;3.15;2.55;;;12.10;48.00;;;;;;5089494;28;20564;-58
2022/05/11 01:13:53;;;;;;;2.90;2.47;;;12.00;48.00;;;;;;5093147;28;20392;-59
2022/05/11 01:16:18;;;;;;;2.58;2.38;;;12.00;47.90;;;;;;5094607;28;20081;-59
2022/05/11 01:18:44;;;;;;;2.78;2.47;;;12.00;47.90;;;;;;5094935;28;20430;-58
2022/05/11 01:21:10;;;;;;;3.53;2.60;;;12.00;47.90;;;;;;5093876;28;20048;-58
2022/05/11 01:23:45;;;;;;;5.22;2.83;;;12.00;47.80;;;;;;5094643;28;20535;-59
2022/05/11 01:26:15;;;;;;;4.35;2.78;;;12.00;47.80;;;;;;5094553;28;20104;-58
2022/05/11 01:28:46;;;;;;;3.25;2.30;;;12.00;47.70;;;;;;5085182;28;20119;-59
2022/05/11 01:31:13;;;;;;;4.97;2.80;;;12.00;47.60;;;;;;5094730;28;20034;-58
2022/05/11 01:33:44;;;;;;;3.38;2.83;;;11.90;47.70;;;;;;5094913;28;20387;-59
2022/05/11 01:36:28;;;;;;;4.17;3.07;;;11.90;47.60;;;;;;5093618;28;20039;-59
2022/05/11 01:38:59;;;;;;;4.90;2.72;;;11.90;47.50;;;;;;5093928;28;20311;-59
2022/05/11 01:41:34;;;;;;;4.15;3.05;;;11.90;47.40;;;;;;5093513;28;20085;-58
2022/05/11 01:44:04;;;;;;;3.78;2.90;;;11.90;47.40;;;;;;5077989;28;20553;-59
2022/05/11 01:46:30;;;;;;;3.22;2.75;;;11.90;47.30;;;;;;5084115;28;20082;-58
2022/05/11 01:48:55;;;;;;;4.65;2.78;;;11.90;47.30;;;;;;5093722;28;20028;-59
2022/05/11 01:51:21;;;;;;;3.40;2.95;;;11.80;47.20;;;;;;5094233;28;20027;-57
2022/05/11 01:53:48;;;;;;;3.72;2.90;;;11.80;47.20;;;;;;5094114;28;20024;-59
2022/05/11 01:56:15;;;;;;;4.43;2.92;;;11.90;47.20;;;;;;5094218;28;20023;-58
2022/05/11 01:58:41;;;;;;;4.38;3.08;;;11.80;47.20;;;;;;5093896;28;20031;-59
2022/05/11 02:01:07;;;;;;;3.38;3.08;;;11.80;47.10;;;;;;5091951;28;20028;-59
2022/05/11 02:03:33;;;;;;;4.00;3.08;;;11.90;47.30;;;;;;5086271;28;20020;-59
2022/05/11 02:08:44;;;;;;;4.35;2.90;;;11.90;47.30;;;;;;5075710;28;20031;-59
2022/05/11 02:11:12;;;;;;;3.22;2.80;;;11.90;47.20;;;;;;5073848;28;20051;-59
2022/05/11 02:13:37;;;;;;;4.30;3.13;;;11.90;47.20;;;;;;5088179;28;20031;-58
2022/05/11 02:16:04;;;;;;;3.55;2.80;;;11.90;47.10;;;;;;5091621;28;20024;-59
2022/05/11 02:18:29;;;;;;;4.03;3.20;;;11.90;47.00;;;;;;5088580;28;20020;-59
2022/05/11 02:20:55;;;;;;;6.22;3.30;;;11.90;47.10;;;;;;5087771;28;20180;-58
2022/05/11 02:23:23;;;;;;;4.70;3.10;;;11.90;47.10;;;;;;5086110;28;20043;-58
2022/05/11 02:25:50;;;;;;;3.15;2.80;;;11.90;47.10;;;;;;5073210;28;20024;-58
2022/05/11 02:28:17;;;;;;;4.28;3.28;;;11.90;47.30;;;;;;5087326;28;20024;-58
2022/05/11 02:30:45;;;;;;;4.20;3.20;;;11.90;47.20;;;;;;5093297;28;20028;-59
2022/05/11 02:33:12;;;;;;;4.75;3.60;;;11.90;47.10;;;;;;5093268;28;20384;-59
2022/05/11 02:35:38;;;;;;;4.80;3.70;;;11.90;46.90;;;;;;5087294;28;20021;-58
2022/05/11 02:38:12;;;;;;;5.07;3.63;;;11.90;46.90;;;;;;5086636;28;20543;-59
2022/05/11 02:40:39;;;;;;;7.80;3.67;;;11.90;46.90;;;;;;5073708;28;20052;-59
2022/05/11 02:43:06;;;;;;;4.90;3.80;;;11.90;46.90;;;;;;5088004;28;20055;-58
2022/05/11 02:45:33;;;;;;;5.38;3.90;;;11.90;46.70;;;;;;5092557;28;20024;-58
2022/05/11 02:48:02;;;;;;;4.55;3.70;;;11.90;46.60;;;;;;5092362;28;20031;-58
2022/05/11 02:50:32;;;;;;;5.82;3.70;;;11.90;46.60;;;;;;5093166;28;20040;-58
2022/05/11 02:52:58;;;;;;;5.30;3.58;;;11.90;46.60;;;;;;5080201;28;20039;-59
2022/05/11 02:55:23;;;;;;;6.70;3.33;;;11.90;46.50;;;;;;5093152;28;20032;-58
2022/05/11 02:57:49;;;;;;;5.97;3.50;;;12.00;46.50;;;;;;5092872;28;20476;-59
2022/05/11 03:00:18;;;;;;;4.18;3.50;;;12.00;46.50;;;;;;5092195;28;20495;-59
2022/05/11 03:02:45;;;;;;;4.07;3.58;;;12.00;46.50;;;;;;5093134;28;20024;-59
2022/05/11 03:05:13;;;;;;;5.35;3.33;;;12.00;46.40;;;;;;5092793;28;20085;-58
2022/05/11 03:07:39;;;;;;;4.03;3.17;;;12.00;46.50;;;;;;5092756;28;20024;-59
2022/05/11 03:10:08;;;;;;;4.60;3.30;;;12.00;46.40;;;;;;5089917;28;20024;-59
2022/05/11 03:12:34;;;;;;;5.10;3.13;;;12.00;46.50;;;;;;5088700;28;20035;-59
2022/05/11 03:15:01;;;;;;;4.03;3.10;;;12.00;46.50;;;;;;5092188;28;20020;-59
2022/05/11 03:17:27;;;;;;;4.05;3.33;;;12.10;46.50;;;;;;5092628;28;20032;-58
2022/05/11 03:19:52;;;;;;;5.20;3.47;;;12.10;46.60;;;;;;5091776;28;20484;-59
2022/05/11 03:22:18;;;;;;;3.90;3.05;;;12.20;46.70;;;;;;5082408;28;20059;-58
2022/05/11 03:24:44;;;;;;;4.57;3.28;;;12.30;46.90;;;;;;5072619;28;20492;-59
2022/05/11 03:27:10;;;;;;;4.18;3.10;;;12.40;47.00;;;;;;5086963;28;20051;-59
2022/05/11 03:29:36;;;;;;;3.50;3.00;;;12.50;47.00;;;;;;5091248;28;20020;-59
2022/05/11 03:34:47;;;;;;;3.70;2.88;;;12.70;47.10;;;;;;5072455;28;20024;-59
2022/05/11 03:37:18;;;;;;;3.28;2.90;;;12.80;47.10;;;;;;5072584;28;20020;-59
2022/05/11 03:39:44;;;;;;;4.40;3.00;;;13.00;47.20;;;;;;5072599;28;20085;-59
2022/05/11 03:42:16;;;;;;;2.83;2.55;;;13.20;47.20;;;;;;5066133;28;20119;-59
2022/05/11 03:44:41;;;;;;;2.90;2.58;;;13.30;47.30;;;;;;5086133;28;20166;-59
2022/05/11 03:47:07;;;;;;;4.10;2.80;;;13.50;47.30;;;;;;5087447;28;20570;-58
2022/05/11 03:49:33;;;;;;;3.33;2.42;;;13.80;47.10;;;;;;5084141;28;20487;-59
2022/05/11 03:51:59;;;;;;;2.88;2.42;;;14.00;46.90;;;;;;5089626;28;20106;-58
2022/05/11 03:54:25;;;;;;;2.58;2.38;;;14.20;46.60;;;;;;5085861;28;20571;-59
2022/05/11 03:56:51;;;;;;;2.70;2.30;;;14.60;46.30;;;;;;5085515;28;20396;-59
2022/05/11 03:59:17;;;;;;;3.53;2.40;;;14.90;45.80;;;;;;5080602;28;20162;-59
2022/05/11 04:01:42;;;;;;;3.45;2.08;;;15.30;45.20;;;;;;5093773;28;20503;-59
2022/05/11 04:04:08;;;;;;;3.05;2.33;;;15.60;44.70;;;;;;5095508;28;20032;-59
2022/05/11 04:06:34;;;;;;;2.45;1.88;;;15.90;44.30;;;;;;5091895;28;20021;-58
2022/05/11 04:09:00;;;;;;;3.08;2.42;;;16.30;44.10;;;;;;5095058;28;20501;-59
2022/05/11 04:11:27;;;;;;;3.35;2.40;;;16.80;43.70;;;;;;5089377;28;20159;-59
2022/05/11 04:13:53;;;;;;;2.53;2.10;;;17.30;43.20;;;;;;5093465;28;20103;-59
2022/05/11 04:16:19;;;;;;;2.15;1.85;;;17.80;42.90;;;;;;5090425;28;20561;-59
2022/05/11 04:18:45;;;;;;;2.20;2.00;;;18.50;42.30;;;;;;5088506;28;20483;-58
2022/05/11 04:21:12;;;;;;;2.30;2.08;;;19.20;41.80;;;;;;5095461;28;20044;-58
2022/05/11 04:23:40;;;;;;;2.85;2.00;;;20.00;41.20;;;;;;5088052;28;20029;-58
2022/05/11 04:26:10;;;;;;;1.83;1.73;;;20.70;40.20;;;;;;5092154;28;20443;-59
2022/05/11 04:28:37;;;;;;;2.58;2.15;;;21.20;39.80;;;;;;5090435;28;20460;-59
2022/05/11 04:31:05;;;;;;;2.22;1.98;;;21.70;39.60;;;;;;5093884;28;20020;-59
2022/05/11 04:33:31;;;;;;;2.10;1.85;;;22.30;39.80;;;;;;5085214;28;20497;-59
2022/05/11 04:35:57;;;;;;;2.35;1.88;;;22.80;38.60;;;;;;5089646;28;20017;-59
2022/05/11 04:38:23;;;;;;;3.15;1.92;;;23.30;37.90;;;;;;5089410;28;20546;-59
2022/05/11 04:40:48;;;;;;;1.75;1.65;;;23.60;37.50;;;;;;5088919;28;20067;-59
2022/05/11 04:43:14;;;;;;;2.10;1.90;;;23.70;37.00;;;;;;5087195;28;20115;-57
2022/05/11 04:45:42;;;;;;;2.38;2.03;;;23.80;37.30;;;;;;5088948;28;20020;-56
2022/05/11 04:48:09;;;;;;;2.25;2.05;;;23.70;36.70;;;;;;5087600;28;20027;-57
2022/05/11 04:50:41;;;;;;;1.58;1.48;;;23.50;36.30;;;;;;5093781;28;20028;-57
2022/05/11 04:53:08;;;;;;;3.55;2.08;;;23.20;36.10;;;;;;5091280;28;20036;-56
2022/05/11 04:55:34;;;;;;;2.20;2.00;;;22.90;36.20;;;;;;5088006;28;20085;-57
2022/05/11 04:57:59;;;;;;;2.70;2.00;;;22.70;36.10;;;;;;5071114;28;20520;-57
2022/05/11 05:00:25;;;;;;;2.38;2.17;;;22.60;36.20;;;;;;5083054;28;20032;-58
2022/05/11 05:02:52;;;;;;;2.08;1.70;;;22.50;36.20;;;;;;5087600;28;20149;-58
2022/05/11 05:05:18;;;;;;;2.20;2.00;;;22.40;36.30;;;;;;5084109;28;20032;-57
2022/05/11 05:07:44;;;;;;;2.15;1.95;;;22.30;36.30;;;;;;5084407;28;20031;-58
2022/05/11 05:10:12;;;;;;;2.83;1.95;;;22.30;36.40;;;;;;5081815;28;20028;-58
2022/05/11 05:12:39;;;;;;;2.28;2.08;;;22.20;36.50;;;;;;5083429;28;20058;-58
2022/05/11 05:15:06;;;;;;;2.03;1.80;;;22.20;36.40;;;;;;5085829;28;20034;-58
2022/05/11 05:17:31;;;;;;;3.13;2.13;;;22.10;36.20;;;;;;5084049;28;20375;-58
2022/05/11 05:19:57;;;;;;;1.77;1.67;;;22.00;36.20;;;;;;5087121;28;20047;-58
2022/05/11 05:22:23;;;;;;;2.20;2.00;;;21.80;36.10;;;;;;5086835;28;20040;-58
2022/05/11 05:24:49;;;;;;;3.38;2.35;;;21.60;36.30;;;;;;5087897;28;20472;-58
2022/05/11 05:27:17;;;;;;;2.83;2.05;;;21.30;36.50;;;;;;5082597;28;20526;-58
2022/05/11 05:32:27;;;;;;;3.42;1.98;;;20.70;36.70;;;;;;5085684;28;20034;-57
2022/05/11 05:34:57;;;;;;;3.70;2.15;;;20.30;37.20;;;;;;5085336;28;20024;-57
2022/05/11 05:37:23;;;;;;;2.90;2.00;;;20.00;37.30;;;;;;5081905;28;20031;-58
2022/05/11 05:39:49;;;;;;;3.08;2.30;;;19.80;37.90;;;;;;5086642;28;20080;-59
2022/05/11 05:42:23;;;;;;;2.35;2.13;;;19.50;38.20;;;;;;5064229;28;20028;-58
2022/05/11 05:44:49;;;;;;;2.63;2.33;;;19.30;38.40;;;;;;5081356;28;20076;-58
2022/05/11 05:47:16;;;;;;;2.28;1.98;;;19.10;38.70;;;;;;5083315;28;20017;-58
2022/05/11 05:49:42;;;;;;;3.05;2.47;;;18.90;38.60;;;;;;5086754;28;20032;-58
2022/05/11 05:52:15;;;;;;;2.63;2.35;;;18.80;39.70;;;;;;5087778;28;20496;-58
2022/05/11 05:54:41;;;;;;;4.80;2.45;;;18.70;39.50;;;;;;5084023;28;20044;-58
2022/05/11 05:57:06;;;;;;;2.40;2.15;;;18.60;39.70;;;;;;5082308;28;20040;-58
2022/05/11 05:59:32;;;;;;;2.75;2.40;;;18.50;40.10;;;;;;5082799;28;20020;-58
2022/05/11 06:01:57;;;;;;;3.90;2.15;;;18.50;40.50;;;;;;5078796;28;20027;-58
2022/05/11 06:04:23;;;;;;;3.03;2.08;;;18.40;40.70;;;;;;5082947;28;22773;-59
2022/05/11 06:06:49;;;;;;;2.35;2.10;;;18.40;40.60;;;;;;5073811;28;20626;-58
2022/05/11 06:09:15;;;;;;;2.88;2.20;;;18.40;40.80;;;;;;5076246;28;20028;-58
2022/05/11 06:11:41;;;;;;;3.30;2.28;;;18.40;41.20;;;;;;5075604;28;20400;-58
2022/05/11 06:14:07;;;;;;;3.55;2.20;;;18.40;41.20;;;;;;5076792;28;20051;-58
2022/05/11 06:16:33;;;;;;;2.50;2.10;;;18.40;41.50;;;;;;5074017;28;20028;-58
2022/05/11 06:18:58;;;;;;;2.90;2.50;;;18.40;41.60;;;;;;5064294;28;20143;-58
2022/05/11 06:21:24;;;;;;;2.97;2.35;;;18.40;41.70;;;;;;5069848;28;20106;-58
2022/05/11 06:23:51;;;;;;;3.20;2.30;;;18.30;41.90;;;;;;5068301;28;20048;-58
2022/05/11 06:26:17;;;;;;;2.30;2.10;;;18.30;41.80;;;;;;5073537;28;20024;-58
2022/05/11 06:28:44;;;;;;;2.45;2.20;;;18.30;41.90;;;;;;5072703;28;20035;-58
2022/05/11 06:31:11;;;;;;;4.82;2.20;;;18.30;41.70;;;;;;5069950;28;20492;-59
2022/05/11 06:33:37;;;;;;;2.22;2.03;;;18.30;41.60;;;;;;5072580;28;20056;-57
2022/05/11 06:36:05;;;;;;;2.17;1.98;;;18.40;41.80;;;;;;5066720;28;20388;-58
2022/05/11 06:38:31;;;;;;;2.85;2.13;;;18.40;41.70;;;;;;5073659;28;20107;-58
2022/05/11 06:40:57;;;;;;;2.40;2.20;;;18.50;42.00;;;;;;5075113;28;20032;-58
2022/05/11 06:43:23;;;;;;;3.13;2.20;;;18.50;42.00;;;;;;5077854;28;20027;-57
2022/05/11 06:45:49;;;;;;;2.70;2.08;;;18.60;42.10;;;;;;5069390;28;20024;-59
2022/05/11 06:48:15;;;;;;;2.33;1.92;;;18.60;41.90;;;;;;5073344;28;20035;-57
2022/05/11 06:50:43;;;;;;;2.03;1.83;;;18.60;42.00;;;;;;5069878;28;20043;-58
2022/05/11 06:53:12;;;;;;;2.33;2.00;;;18.50;41.90;;;;;;5073503;28;20055;-58
2022/05/11 07:01:11;;;;;;;2.50;2.22;;;18.30;42.30;;;;;;5071021;28;20043;-58
2022/05/11 07:03:38;;;;;;;3.80;2.17;;;18.20;42.70;;;;;;5072382;28;20024;-58
2022/05/11 07:06:05;;;;;;;2.22;2.03;;;18.10;42.80;;;;;;5063744;28;20032;-58
2022/05/11 07:08:37;;;;;;;2.03;1.83;;;18.10;42.70;;;;;;5067041;28;20025;-58
2022/05/11 07:13:47;;;;;;;2.28;1.75;;;18.10;42.70;;;;;;5077911;28;20089;-58
2022/05/11 07:16:14;;;;;;;2.50;1.70;;;18.10;42.50;;;;;;5068723;28;20073;-57
2022/05/11 07:18:41;;;;;;;2.38;1.92;;;18.10;42.50;;;;;;5067558;28;20111;-58
2022/05/11 07:21:07;;;;;;;2.97;1.90;;;18.10;42.40;;;;;;5073027;28;20048;-58
2022/05/11 07:23:32;;;;;;;2.50;1.83;;;18.10;42.20;;;;;;5068298;28;20058;-58
2022/05/11 07:25:58;;;;;;;1.50;1.40;;;18.10;42.20;;;;;;5064969;28;20032;-58
2022/05/11 07:28:24;;;;;;;1.95;1.70;;;18.10;42.10;;;;;;5064478;28;20036;-57
2022/05/11 07:30:50;;;;;;;1.90;1.70;;;18.20;41.80;;;;;;5070517;28;20372;-59
2022/05/11 07:33:17;;;;;;;1.75;1.40;;;18.20;41.40;;;;;;5073167;28;20131;-58
2022/05/11 07:35:43;;;;;;;1.85;1.20;;;18.10;41.30;;;;;;5072959;28;20040;-59
2022/05/11 07:38:12;;;;;;;1.92;1.80;;;18.10;41.20;;;;;;5067303;28;21164;-57
2022/05/11 07:40:39;;;;;;;1.92;1.70;;;18.10;41.10;;;;;;5069854;28;20034;-58
2022/05/11 07:43:05;;;;;;;2.17;1.65;;;18.10;41.20;;;;;;5067666;28;20028;-58
2022/05/11 07:45:31;;;;;;;1.92;1.75;;;18.20;41.40;;;;;;5064722;28;21736;-58
2022/05/11 07:47:56;;;;;;;2.97;1.70;;;18.20;41.60;;;;;;5062279;28;20680;-57
2022/05/11 07:50:22;;;;;;;4.05;2.13;;;18.30;41.50;;;;;;5066978;28;20452;-57
2022/05/11 07:52:48;;;;;;;3.03;1.95;;;18.30;41.20;;;;;;5072105;28;20139;-58
2022/05/11 07:55:15;;;;;;;1.83;1.63;;;18.40;41.30;;;;;;5069028;28;20048;-57
2022/05/11 08:00:25;;;;;;;2.03;1.55;;;18.40;41.20;;;;;;5060077;28;20047;-58
2022/05/11 08:02:52;;;;;;;1.80;1.70;;;18.40;41.50;;;;;;5066796;28;20748;-57
2022/05/11 08:05:19;;;;;;;2.33;1.85;;;18.50;41.30;;;;;;5064790;28;20034;-58
2022/05/11 08:07:52;;;;;;;2.47;1.80;;;18.50;41.10;;;;;;5068425;28;20024;-58
2022/05/11 08:10:25;;;;;;;1.90;1.65;;;18.50;41.50;;;;;;5067901;28;20131;-59
2022/05/11 08:12:55;;;;;;;1.85;1.52;;;18.50;40.80;;;;;;5071873;28;20028;-57
2022/05/11 08:15:22;;;;;;;1.35;1.25;;;18.50;40.90;;;;;;5069577;28;20028;-58
2022/05/11 08:17:49;;;;;;;2.50;1.73;;;18.60;40.90;;;;;;5075784;28;20097;-58
2022/05/11 08:20:24;;;;;;;2.05;1.85;;;18.60;41.10;;;;;;5063262;28;20547;-58
2022/05/11 08:22:51;;;;;;;1.77;1.67;;;18.60;40.90;;;;;;5067283;28;20676;-58
2022/05/11 08:25:20;;;;;;;1.60;1.50;;;18.70;40.90;;;;;;5061888;28;20031;-58
2022/05/11 08:27:47;;;;;;;1.70;1.60;;;18.70;40.60;;;;;;5065173;28;20043;-59
2022/05/11 08:33:22;;;;;;;2.00;1.80;;;18.80;41.30;;;;;;5070054;28;20043;-58
2022/05/11 08:35:59;;;;;;;1.70;1.50;;;18.80;40.30;;;;;;5069541;28;20056;-57
2022/05/11 08:38:30;;;;;;;2.10;1.70;;;18.90;40.20;;;;;;5053834;28;20056;-57
2022/05/11 08:41:04;;;;;;;1.70;1.55;;;18.90;40.10;;;;;;5071397;28;20032;-57
2022/05/11 08:43:31;;;;;;;1.63;1.52;;;18.90;39.90;;;;;;5071079;28;20555;-58
2022/05/11 08:46:28;;;;;;;1.88;1.60;;;18.90;39.70;;;;;;5061398;28;20032;-60
2022/05/11 08:49:17;;;;;;;2.05;1.80;;;18.90;39.40;;;;;;5053338;28;20044;-58
2022/05/11 08:51:56;;;;;;;2.17;1.63;;;18.90;39.20;;;;;;5059770;28;20016;-58
2022/05/11 08:54:39;;;;;;;1.98;1.75;;;18.90;39.40;;;;;;5063096;28;21259;-58
2022/05/11 08:57:26;;;;;;;1.58;1.45;;;18.90;39.30;;;;;;5057360;28;20028;-59
2022/05/11 08:59:58;;;;;;;2.15;1.98;;;18.90;39.10;;;;;;5060868;28;20063;-57
2022/05/11 09:03:21;;;;;;;1.67;1.55;;;18.90;39.40;;;;;;5059150;28;20043;-58
2022/05/11 09:05:46;;;;;;;1.85;1.75;;;18.90;39.00;;;;;;4986040;28;20044;-58
2022/05/11 09:08:12;;;;;;;1.80;1.70;;;18.90;39.00;;;;;;4987312;28;20026;-59
2022/05/11 09:10:39;;;;;;;1.70;1.60;;;18.80;38.90;;;;;;5027227;28;20040;-56
2022/05/11 09:13:11;;;;;;;2.13;1.67;;;18.80;38.90;;;;;;5065947;28;20130;-56
2022/05/11 09:15:55;;;;;;;1.77;1.67;;;18.80;39.00;;;;;;5062779;28;20024;-57
2022/05/11 09:18:42;;;;;;;3.38;1.60;;;18.70;38.90;;;;;;5063828;28;20036;-59
2022/05/11 09:21:32;;;;;;;6.53;2.05;;;18.70;38.80;;;;;;5072273;28;20052;-58
2022/05/11 09:24:10;;;;;;;2.47;1.73;;;18.60;39.10;;;;;;5061643;28;20043;-58
2022/05/11 09:26:39;;;;;;;1.73;1.63;;;18.60;38.80;;;;;;5062622;28;20384;-58
2022/05/11 09:29:21;;;;;;;2.22;1.67;;;18.50;38.80;;;;;;5058135;28;20035;-58
2022/05/11 09:31:50;;;;;;;1.75;1.65;;;18.50;39.00;;;;;;5071569;28;20027;-58
2022/05/11 09:34:33;;;;;;;2.15;1.70;;;18.40;39.90;;;;;;5061058;28;20177;-59
2022/05/11 09:37:19;;;;;;;2.38;1.80;;;18.30;39.10;;;;;;5052006;28;20036;-58
2022/05/11 09:40:13;;;;;;;2.35;1.80;;;18.20;39.10;;;;;;5064613;28;21535;-59
2022/05/11 09:43:10;;;;;;;2.42;2.05;;;18.20;39.20;;;;;;5058738;28;20043;-59
2022/05/11 09:45:48;;;;;;;2.47;1.92;;;18.10;39.20;;;;;;5051239;28;20040;-57
2022/05/11 09:48:17;;;;;;;2.53;1.92;;;18.10;39.40;;;;;;5058730;28;20047;-58
2022/05/11 09:50:44;;;;;;;2.60;1.77;;;18.10;39.50;;;;;;5056799;28;20067;-59
2022/05/11 09:53:32;;;;;;;2.20;2.03;;;18.00;39.60;;;;;;5060390;28;20049;-60
2022/05/11 09:56:28;;;;;;;2.33;2.05;;;18.00;39.70;;;;;;5057126;28;20038;-59
2022/05/11 09:58:54;;;;;;;2.20;2.00;;;17.90;39.90;;;;;;5062284;28;20782;-59
2022/05/11 10:01:26;;;;;;;2.40;2.20;;;17.90;39.80;;;;;;5067887;28;20024;-59
2022/05/11 10:04:00;;;;;;;2.83;2.00;;;17.90;39.90;;;;;;5069241;28;20111;-59
2022/05/11 10:06:27;;;;;;;1.85;1.70;;;17.80;39.80;;;;;;5063652;28;20027;-58
2022/05/11 10:08:54;;;;;;;2.28;2.08;;;17.80;39.70;;;;;;5063987;28;20024;-59
2022/05/11 10:11:25;;;;;;;2.05;1.85;;;17.70;39.70;;;;;;5070980;28;20067;-59
2022/05/11 10:14:00;;;;;;;2.30;2.15;;;17.70;39.70;;;;;;5071980;28;20766;-59
2022/05/11 10:22:25;;;;;;;3.58;1.95;;;17.70;40.00;;;;;;5074753;28;20491;-59
2022/05/11 10:25:05;;;;;;;2.70;1.83;;;17.70;40.10;;;;;;5075269;28;20020;-60
2022/05/11 10:27:30;;;;;;;2.33;1.77;;;17.70;40.10;;;;;;5072645;28;20035;-59
2022/05/11 10:30:09;;;;;;;2.22;1.90;;;17.70;40.00;;;;;;5077115;28;20031;-59
2022/05/11 10:32:49;;;;;;;1.85;1.75;;;17.80;40.10;;;;;;5079448;28;20085;-59
2022/05/11 10:35:31;;;;;;;2.60;1.90;;;17.80;40.20;;;;;;5073608;28;20060;-59
2022/05/11 10:38:14;;;;;;;1.55;1.45;;;17.70;40.40;;;;;;5072723;28;20036;-60
2022/05/11 10:40:52;;;;;;;1.70;1.60;;;17.70;40.10;;;;;;5071975;28;20035;-60
2022/05/11 10:43:34;;;;;;;2.08;1.88;;;17.70;40.00;;;;;;5075675;28;20126;-61
2022/05/11 10:46:22;;;;;;;2.25;1.58;;;17.80;40.10;;;;;;5075742;28;20034;-60
2022/05/11 10:49:22;;;;;;;1.92;1.77;;;17.70;40.50;;;;;;5072475;28;20028;-59
2022/05/11 10:52:07;;;;;;;2.08;1.80;;;17.70;40.60;;;;;;5075810;28;20024;-60
2022/05/11 10:54:38;;;;;;;2.30;1.83;;;17.70;41.10;;;;;;5073518;28;20114;-59
2022/05/11 10:57:30;;;;;;;2.20;1.80;;;17.70;40.60;;;;;;5068111;28;20028;-60
2022/05/11 11:00:13;;;;;;;3.03;1.98;;;17.70;40.70;;;;;;5073088;28;20419;-60
2022/05/11 11:03:27;;;;;;;2.53;1.95;;;17.70;40.60;;;;;;5058714;28;20040;-61
2022/05/11 11:08:52;;;;;;;2.05;1.85;;;17.60;40.90;;;;;;5063814;28;21113;-58
2022/05/11 11:11:44;;;;;;;1.67;1.58;;;17.70;40.90;;;;;;5054003;28;20105;-58
2022/05/11 11:14:11;;;;;;;4.40;1.85;;;17.70;40.40;;;;;;5073482;28;20031;-57
2022/05/11 11:16:38;;;;;;;2.22;1.92;;;17.70;40.40;;;;;;5071446;28;20497;-59
2022/05/11 11:19:06;;;;;;;2.13;1.90;;;17.70;40.30;;;;;;5071352;28;20112;-58
2022/05/11 11:21:32;;;;;;;2.00;1.80;;;17.60;40.20;;;;;;5077704;28;20539;-59
2022/05/11 11:24:22;;;;;;;2.35;2.10;;;17.70;40.50;;;;;;5063292;28;20051;-60
2022/05/11 11:27:00;;;;;;;2.00;1.75;;;17.70;41.30;;;;;;5076027;28;20020;-59
2022/05/11 11:29:55;;;;;;;2.10;1.92;;;17.70;41.20;;;;;;5075989;28;20113;-58
2022/05/11 11:32:21;;;;;;;2.13;1.90;;;17.70;40.90;;;;;;5071478;28;20058;-59
2022/05/11 11:35:11;;;;;;;2.58;1.83;;;17.60;41.00;;;;;;5073516;28;20039;-58
2022/05/11 11:37:39;;;;;;;2.95;2.10;;;17.60;41.30;;;;;;5072282;28;20086;-59
2022/05/11 11:40:14;;;;;;;2.30;2.03;;;17.70;41.50;;;;;;5064967;28;20064;-59
2022/05/11 11:42:42;;;;;;;4.07;2.30;;;17.60;41.90;;;;;;5067132;28;20023;-57
2022/05/11 11:45:24;;;;;;;2.30;1.90;;;17.60;42.30;;;;;;5066549;28;20036;-59
2022/05/11 11:48:04;;;;;;;2.47;1.88;;;17.60;42.30;;;;;;5061140;28;20024;-58
2022/05/11 11:50:53;;;;;;;2.13;1.92;;;17.60;42.40;;;;;;5062986;28;20040;-59
2022/05/11 11:53:43;;;;;;;2.25;2.00;;;17.60;42.40;;;;;;5069595;28;20036;-59
2022/05/11 11:56:24;;;;;;;2.60;1.98;;;17.60;42.30;;;;;;5064312;28;20036;-58
2022/05/11 11:59:22;;;;;;;2.53;1.92;;;17.60;42.10;;;;;;5064097;28;20034;-57
2022/05/11 12:01:49;;;;;;;1.83;1.73;;;17.60;42.40;;;;;;5064844;28;20574;-58
2022/05/11 12:04:30;;;;;;;3.65;2.15;;;17.60;42.40;;;;;;5064886;28;20032;-59
2022/05/11 12:16:10;;;;;;;2.83;1.98;;;17.60;43.00;;;;;;5062586;28;20121;-59
2022/05/11 12:18:38;;;;;;;2.15;1.95;;;17.60;43.10;;;;;;5061310;28;20042;-58
2022/05/11 12:21:09;;;;;;;2.60;2.00;;;17.60;42.60;;;;;;5057168;28;20048;-57
2022/05/11 12:23:39;;;;;;;1.70;1.60;;;17.60;42.90;;;;;;5057988;28;20027;-58
2022/05/11 12:26:08;;;;;;;2.58;2.15;;;17.60;43.20;;;;;;5059582;28;20119;-58
2022/05/11 12:28:41;;;;;;;2.85;1.98;;;17.60;43.10;;;;;;5058836;28;20032;-58
2022/05/11 12:31:08;;;;;;;2.63;2.03;;;17.60;42.80;;;;;;5063093;28;20368;-60
2022/05/11 12:33:41;;;;;;;1.92;1.70;;;17.60;42.60;;;;;;5054576;28;20059;-60
2022/05/11 12:36:07;;;;;;;2.33;2.00;;;17.60;42.10;;;;;;5061941;28;20028;-58
2022/05/11 12:38:40;;;;;;;2.75;1.92;;;17.60;42.00;;;;;;5047770;28;20526;-59
2022/05/11 12:41:18;;;;;;;2.08;1.80;;;17.60;42.40;;;;;;5064378;28;20027;-58
2022/05/11 12:44:05;;;;;;;2.42;1.90;;;17.60;42.60;;;;;;5062831;28;20024;-59
2022/05/11 12:46:36;;;;;;;1.83;1.67;;;17.60;42.70;;;;;;5057472;28;20027;-57
2022/05/11 12:49:03;;;;;;;3.05;2.15;;;17.60;42.60;;;;;;5056906;28;20594;-58
2022/05/11 12:51:36;;;;;;;2.42;2.10;;;17.60;42.60;;;;;;5056488;28;20038;-57
2022/05/11 12:54:06;;;;;;;2.63;2.40;;;17.60;42.50;;;;;;5046359;28;20077;-58
2022/05/11 12:56:39;;;;;;;2.08;1.88;;;17.60;42.40;;;;;;5052136;28;20032;-58
2022/05/11 12:59:17;;;;;;;2.72;2.30;;;17.60;42.30;;;;;;5057688;28;20422;-58
2022/05/11 13:01:43;;;;;;;2.63;1.73;;;17.60;42.90;;;;;;5053882;28;20024;-58
2022/05/11 13:04:21;;;;;;;2.00;1.90;;;17.70;42.80;;;;;;5055886;28;20085;-58
2022/05/11 13:06:56;;;;;;;2.45;2.10;;;17.70;42.80;;;;;;5061104;28;20028;-59
2022/05/11 13:09:35;;;;;;;2.38;2.10;;;17.70;42.60;;;;;;5061364;28;20215;-59
2022/05/11 13:12:02;;;;;;;3.40;2.10;;;17.80;42.60;;;;;;5072116;28;20032;-58
2022/05/11 13:14:32;;;;;;;3.03;2.20;;;17.70;42.70;;;;;;5067485;28;20492;-59
2022/05/11 13:17:04;;;;;;;3.77;1.97;;;17.70;42.60;;;;;;5064901;28;22257;-58
2022/05/11 13:19:35;;;;;;;1.80;1.70;;;17.70;42.70;;;;;;5065895;28;20277;-59
2022/05/11 13:22:13;;;;;;;2.22;1.85;;;17.80;42.50;;;;;;5064406;28;20052;-59
2022/05/11 13:24:44;;;;;;;2.35;2.15;;;17.80;42.50;;;;;;5064560;28;20024;-57
2022/05/11 13:27:48;;;;;;;2.33;1.92;;;17.80;42.60;;;;;;5063423;28;20085;-58
2022/05/11 13:30:29;;;;;;;2.70;1.90;;;17.80;42.20;;;;;;5063560;28;20051;-58
2022/05/11 13:32:58;;;;;;;3.25;2.08;;;17.80;43.20;;;;;;5061369;28;20032;-59
2022/05/11 13:35:37;;;;;;;2.20;2.00;;;17.90;42.80;;;;;;5069952;28;20032;-59
2022/05/11 13:38:08;;;;;;;2.15;1.85;;;17.90;42.70;;;;;;5070297;28;20499;-59
2022/05/11 13:40:42;;;;;;;1.98;1.60;;;17.90;42.80;;;;;;5064405;28;20024;-58
2022/05/11 13:43:31;;;;;;;2.42;2.20;;;18.00;43.00;;;;;;5067573;28;20134;-57
2022/05/11 13:46:02;;;;;;;3.22;2.63;;;18.00;43.20;;;;;;5062999;28;20032;-58
2022/05/11 13:48:38;;;;;;;3.33;2.40;;;18.10;43.50;;;;;;5060586;28;20109;-59
2022/05/11 13:51:14;;;;;;;2.05;1.92;;;18.10;43.60;;;;;;5061120;28;20046;-58